Time;durP1;ratioP1;P1;durP2;ratioP2;P2;SDS_P1;SDS_P2;PMS_P1;PMS_P2;Temp;Humidity;BMP_temperature;BMP_pressure;BME280_temperature;BME280_humidity;BME280_pressure;Samples;Min_cycle;Max_cycle;Signal;HPM_P1;HPM_P2
2023/01/17 00:01:06;;;;;;;104.30;51.28;;;;;;;4.22;100.00;98526.94;5030624;28;20022;-70
2023/01/17 00:03:32;;;;;;;;;;;;;;;4.34;98.98;98529.16;5031971;28;20129;-70
2023/01/17 00:11:26;;;;;;;96.35;47.50;;;;;;;4.24;99.33;98534.94;5014772;28;20045;-70
2023/01/17 00:13:51;;;;;;;110.13;50.17;;;;;;;4.15;100.00;98534.91;5027036;28;20029;-70
2023/01/17 00:16:17;;;;;;;94.20;46.60;;;;;;;3.97;100.00;98526.44;5034587;28;20108;-70
2023/01/17 00:26:01;;;;;;;101.85;49.72;;;;;;;4.16;100.00;98526.28;5032851;28;20025;-70
2023/01/17 01:35:57;;;;;;;95.18;45.33;;;;;;;4.28;100.00;98445.41;5032382;28;20026;-70
2023/01/17 01:38:24;;;;;;;94.97;45.40;;;;;;;4.37;100.00;98448.22;5032616;28;20412;-71
2023/01/17 01:40:54;;;;;;;91.35;44.75;;;;;;;4.56;99.60;98463.78;5033215;28;20037;-70
2023/01/17 01:43:43;;;;;;;86.30;40.85;;;;;;;4.75;98.87;98457.97;5032548;28;20475;-71
2023/01/17 01:46:26;;;;;;;89.88;42.50;;;;;;;4.22;99.35;98457.75;5032945;28;20033;-70
2023/01/17 01:49:00;;;;;;;85.65;42.70;;;;;;;4.30;100.00;98470.81;5031919;28;20025;-70
2023/01/17 01:51:33;;;;;;;88.03;44.33;;;;;;;4.37;100.00;98469.56;5032385;28;20397;-70
2023/01/17 01:54:28;;;;;;;88.32;42.40;;;;;;;4.53;100.00;98468.00;5031928;28;20109;-70
2023/01/17 01:56:58;;;;;;;82.40;40.22;;;;;;;4.63;99.05;98467.72;5031660;28;20064;-70
2023/01/17 01:59:24;;;;;;;81.97;38.72;;;;;;;4.66;98.67;98454.34;5033905;28;20078;-71
2023/01/17 02:01:54;;;;;;;86.00;40.97;;;;;;;4.72;99.47;98458.63;5033759;28;20033;-70
2023/01/17 02:04:21;;;;;;;82.53;41.17;;;;;;;4.69;99.08;98465.63;5032834;28;20036;-71
2023/01/17 02:06:51;;;;;;;76.63;39.38;;;;;;;4.51;99.23;98448.13;5032666;28;20033;-70
2023/01/17 02:09:18;;;;;;;83.72;40.05;;;;;;;4.71;99.06;98468.88;5032590;28;20053;-70
2023/01/17 02:11:45;;;;;;;76.47;40.75;;;;;;;4.69;99.11;98473.09;5031748;28;20037;-71
2023/01/17 02:14:19;;;;;;;78.03;38.63;;;;;;;4.73;98.25;98458.28;5028475;28;20033;-70
2023/01/17 02:17:18;;;;;;;76.47;38.05;;;;;;;4.69;97.81;98464.78;5032142;28;20060;-70
2023/01/17 02:20:21;;;;;;;72.80;36.45;;;;;;;4.67;98.45;98456.81;5032475;28;20040;-70
2023/01/17 02:23:10;;;;;;;70.38;35.38;;;;;;;4.83;97.65;98464.69;5032424;28;20469;-71
2023/01/17 02:25:53;;;;;;;65.38;33.80;;;;;;;4.77;96.93;98469.56;5030961;28;20037;-70
2023/01/17 02:28:43;;;;;;;74.93;34.63;;;;;;;4.43;97.69;98471.03;5024502;28;20061;-70
2023/01/17 02:31:26;;;;;;;66.72;33.35;;;;;;;4.58;97.86;98465.06;5029973;28;20380;-70
2023/01/17 02:34:22;;;;;;;72.57;33.45;;;;;;;4.77;97.60;98444.63;5028491;28;20044;-70
2023/01/17 02:37:13;;;;;;;64.72;31.27;;;;;;;4.80;97.08;98440.41;5031337;28;20037;-70
2023/01/17 02:39:49;;;;;;;65.90;33.58;;;;;;;4.63;96.84;98419.81;5031631;28;20045;-71
2023/01/17 02:42:19;;;;;;;67.13;32.90;;;;;;;4.67;97.42;98431.06;5031789;28;20029;-71
2023/01/17 02:44:44;;;;;;;75.18;37.47;;;;;;;3.91;100.00;98437.22;5030943;28;20026;-70
2023/01/17 02:47:28;;;;;;;73.55;34.58;;;;;;;4.05;100.00;98430.81;5031926;28;20140;-71
2023/01/17 02:50:02;;;;;;;64.05;35.10;;;;;;;4.25;100.00;98432.22;5030684;28;20025;-70
2023/01/17 02:52:36;;;;;;;75.22;37.97;;;;;;;4.31;100.00;98428.16;5031417;28;20025;-70
2023/01/17 02:55:26;;;;;;;72.72;36.70;;;;;;;4.35;98.91;98431.09;5031947;28;20034;-71
2023/01/17 02:58:34;;;;;;;79.47;40.38;;;;;;;4.59;98.48;98427.13;5032036;28;20468;-70
2023/01/17 03:01:08;;;;;;;87.93;39.25;;;;;;;4.62;97.54;98421.78;5026520;28;20643;-70
2023/01/17 03:03:45;;;;;;;90.22;42.65;;;;;;;4.66;97.52;98427.50;5032010;28;20033;-71
2023/01/17 03:06:17;;;;;;;82.70;37.50;;;;;;;4.67;97.51;98417.22;5031793;28;20025;-71
2023/01/17 03:08:46;;;;;;;86.95;40.33;;;;;;;4.75;96.89;98397.84;5035130;28;20123;-70
2023/01/17 03:11:12;;;;;;;61.45;32.90;;;;;;;4.56;97.07;98387.03;5031786;28;20044;-71
2023/01/17 03:13:37;;;;;;;75.22;36.13;;;;;;;4.60;97.68;98388.03;5030605;28;20088;-71
2023/01/17 03:16:11;;;;;;;70.63;35.33;;;;;;;4.65;96.63;98370.47;5030921;28;20032;-70
2023/01/17 03:18:37;;;;;;;74.78;36.92;;;;;;;4.62;97.46;98384.94;5029372;28;20416;-71
2023/01/17 03:21:02;;;;;;;71.57;36.00;;;;;;;4.81;96.77;98390.19;5031565;28;20038;-71
2023/01/17 03:23:28;;;;;;;83.72;41.83;;;;;;;4.71;96.88;98383.00;5031823;28;20032;-70
2023/01/17 03:25:53;;;;;;;86.63;43.10;;;;;;;4.16;98.53;98385.13;5031183;28;20038;-71
2023/01/17 03:28:19;;;;;;;81.45;40.95;;;;;;;4.50;99.44;98396.63;5030960;28;20044;-70
2023/01/17 03:30:44;;;;;;;82.00;37.80;;;;;;;3.99;100.00;98408.00;5031680;28;20033;-70
2023/01/17 03:33:10;;;;;;;83.28;38.63;;;;;;;4.27;100.00;98402.25;5031424;28;20064;-70
2023/01/17 03:35:35;;;;;;;84.38;41.03;;;;;;;4.43;100.00;98383.25;5031460;28;20021;-71
2023/01/17 03:38:01;;;;;;;80.18;40.15;;;;;;;4.50;99.78;98364.22;5028439;28;20415;-71
2023/01/17 03:40:26;;;;;;;86.13;42.00;;;;;;;4.41;99.93;98391.09;5031435;28;20507;-71
2023/01/17 03:42:52;;;;;;;84.03;40.42;;;;;;;4.31;100.00;98367.25;5030681;28;20026;-71
2023/01/17 03:45:17;;;;;;;75.78;37.70;;;;;;;4.37;99.97;98383.72;5032120;28;20029;-71
2023/01/17 03:47:43;;;;;;;88.95;42.90;;;;;;;4.47;99.36;98353.78;5019846;28;20063;-70
2023/01/17 03:50:09;;;;;;;98.88;42.03;;;;;;;4.59;99.44;98358.72;5034197;28;20029;-71
2023/01/17 03:52:35;;;;;;;84.70;39.78;;;;;;;4.62;98.92;98377.44;5035182;28;20052;-71
2023/01/17 03:55:01;;;;;;;92.70;40.85;;;;;;;4.74;97.92;98398.19;5033671;28;20033;-71
2023/01/17 03:57:27;;;;;;;95.53;42.38;;;;;;;4.48;98.61;98399.72;5033780;28;20091;-71
2023/01/17 03:59:53;;;;;;;109.82;46.20;;;;;;;3.55;100.00;98384.78;5035073;28;20033;-71
2023/01/17 04:02:18;;;;;;;108.07;44.25;;;;;;;3.78;100.00;98394.69;5035118;28;20037;-71
2023/01/17 04:04:43;;;;;;;114.05;45.78;;;;;;;3.53;100.00;98364.91;5035021;28;20025;-71
2023/01/17 04:07:09;;;;;;;112.82;46.83;;;;;;;3.95;100.00;98375.75;5034212;28;20099;-71
2023/01/17 04:09:34;;;;;;;110.57;44.65;;;;;;;4.21;100.00;98378.59;5034936;28;20042;-71
2023/01/17 04:12:01;;;;;;;121.65;49.00;;;;;;;4.16;100.00;98365.75;5034829;28;20033;-71
2023/01/17 04:14:26;;;;;;;114.32;47.97;;;;;;;4.27;100.00;98370.97;5032752;28;20140;-71
2023/01/17 04:16:52;;;;;;;124.57;55.60;;;;;;;4.07;100.00;98364.88;5033369;28;20100;-71
2023/01/17 04:19:18;;;;;;;136.45;53.05;;;;;;;4.16;100.00;98381.53;5043176;28;20036;-71
2023/01/17 04:21:43;;;;;;;134.93;55.10;;;;;;;4.25;100.00;98387.91;5033137;28;20065;-71
2023/01/17 04:24:09;;;;;;;133.18;55.05;;;;;;;4.26;100.00;98388.72;5019892;28;20240;-71
2023/01/17 04:26:34;;;;;;;138.57;49.97;;;;;;;4.24;100.00;98382.69;5045446;28;20586;-71
2023/01/17 04:29:00;;;;;;;120.28;53.13;;;;;;;4.14;100.00;98364.44;5033949;28;20109;-71
2023/01/17 04:31:25;;;;;;;131.68;54.63;;;;;;;3.94;100.00;98361.06;5034641;28;20033;-71
2023/01/17 04:33:51;;;;;;;136.40;56.45;;;;;;;3.88;100.00;98338.25;5034257;28;20037;-71
2023/01/17 04:36:16;;;;;;;125.07;52.10;;;;;;;3.87;100.00;98336.63;5034305;28;20025;-71
2023/01/17 04:38:42;;;;;;;140.90;55.47;;;;;;;3.87;100.00;98333.06;5032830;28;20037;-71
2023/01/17 04:41:08;;;;;;;125.80;52.03;;;;;;;3.95;100.00;98335.03;5033577;28;20485;-71
2023/01/17 04:43:34;;;;;;;124.65;54.47;;;;;;;3.90;100.00;98357.31;5033366;28;20025;-71
2023/01/17 04:46:00;;;;;;;132.35;53.72;;;;;;;3.48;100.00;98363.88;5034161;28;20488;-71
2023/01/17 04:48:26;;;;;;;152.48;65.22;;;;;;;3.27;100.00;98346.19;5034116;28;20033;-71
2023/01/17 04:50:58;;;;;;;154.88;62.38;;;;;;;3.29;100.00;98341.97;5034192;28;20083;-71
2023/01/17 04:53:23;;;;;;;154.00;59.55;;;;;;;3.50;100.00;98331.25;5032723;28;20113;-71
2023/01/17 04:55:48;;;;;;;145.98;60.85;;;;;;;3.64;100.00;98350.50;5032933;28;20029;-70
2023/01/17 04:58:14;;;;;;;164.85;67.95;;;;;;;3.51;100.00;98338.41;5034094;28;20021;-71
2023/01/17 05:00:39;;;;;;;181.02;69.55;;;;;;;3.29;100.00;98346.69;5034219;28;20030;-71
2023/01/17 05:03:06;;;;;;;177.10;69.22;;;;;;;3.35;100.00;98362.00;5034314;28;20017;-71
2023/01/17 05:05:31;;;;;;;176.77;67.07;;;;;;;3.57;100.00;98363.97;5033767;28;20037;-70
2023/01/17 05:07:57;;;;;;;169.63;65.30;;;;;;;3.30;100.00;98367.69;5029387;28;20033;-70
2023/01/17 05:10:24;;;;;;;163.32;59.47;;;;;;;3.48;100.00;98368.63;5032092;28;20026;-71
2023/01/17 05:12:57;;;;;;;168.60;66.05;;;;;;;3.16;100.00;98371.31;5033356;28;20033;-70
2023/01/17 05:15:23;;;;;;;155.10;63.22;;;;;;;3.57;100.00;98371.44;5028159;28;20026;-70
2023/01/17 05:17:51;;;;;;;153.60;58.35;;;;;;;3.27;100.00;98360.81;5033648;28;20439;-70
2023/01/17 05:20:17;;;;;;;158.35;61.55;;;;;;;3.34;100.00;98371.44;5033589;28;20029;-70
2023/01/17 05:22:42;;;;;;;141.05;60.40;;;;;;;3.16;100.00;98381.53;5031512;28;20025;-70
2023/01/17 05:25:08;;;;;;;149.48;60.67;;;;;;;3.12;100.00;98370.28;5032292;28;20025;-71
2023/01/17 05:27:33;;;;;;;151.73;56.22;;;;;;;3.21;100.00;98342.75;5033530;28;20026;-70
2023/01/17 05:29:59;;;;;;;172.40;57.72;;;;;;;3.32;100.00;98359.88;5035616;28;20033;-70
2023/01/17 05:32:24;;;;;;;157.13;61.60;;;;;;;3.26;100.00;98358.34;5033000;28;20496;-70
2023/01/17 05:34:50;;;;;;;170.45;60.60;;;;;;;3.28;100.00;98367.19;5033623;28;20021;-70
2023/01/17 05:37:16;;;;;;;185.75;61.55;;;;;;;3.16;100.00;98382.38;5032172;28;20026;-70
2023/01/17 05:39:41;;;;;;;178.82;60.22;;;;;;;3.09;100.00;98381.97;5032094;28;20033;-70
2023/01/17 05:42:07;;;;;;;166.02;63.15;;;;;;;3.09;100.00;98388.34;5033402;28;20376;-70
2023/01/17 05:44:32;;;;;;;171.85;58.55;;;;;;;3.03;100.00;98383.22;5031229;28;20033;-70
2023/01/17 05:46:58;;;;;;;178.52;60.63;;;;;;;3.09;100.00;98370.91;5033030;28;20033;-70
2023/01/17 05:49:24;;;;;;;178.77;58.50;;;;;;;3.22;100.00;98380.31;5032886;28;20025;-71
2023/01/17 05:51:50;;;;;;;190.60;64.80;;;;;;;3.32;100.00;98395.81;5031736;28;20063;-70
2023/01/17 05:54:15;;;;;;;174.20;62.47;;;;;;;3.28;100.00;98397.59;5032103;28;20063;-70
2023/01/17 05:56:41;;;;;;;176.05;66.80;;;;;;;3.27;100.00;98396.75;5032825;28;20083;-71
2023/01/17 05:59:06;;;;;;;195.57;73.53;;;;;;;3.24;100.00;98408.44;5027631;28;20025;-71
2023/01/17 06:01:32;;;;;;;151.35;59.42;;;;;;;3.26;100.00;98394.28;5031041;28;20025;-72
2023/01/17 06:03:57;;;;;;;161.80;57.67;;;;;;;3.44;100.00;98390.53;5040298;28;20028;-70
2023/01/17 06:06:23;;;;;;;177.90;64.25;;;;;;;3.20;100.00;98375.06;5027910;28;20083;-70
2023/01/17 06:08:48;;;;;;;172.00;60.78;;;;;;;3.33;100.00;98414.88;5027977;28;20064;-71
2023/01/17 06:11:14;;;;;;;188.02;67.78;;;;;;;3.33;100.00;98409.34;5030832;28;20029;-74
2023/01/17 06:13:39;;;;;;;179.43;65.43;;;;;;;3.13;100.00;98401.50;5031696;28;20646;-73
2023/01/17 06:16:05;;;;;;;169.18;62.85;;;;;;;2.94;100.00;98403.31;5023436;28;20064;-70
2023/01/17 06:18:31;;;;;;;195.93;64.53;;;;;;;3.11;100.00;98403.78;5029262;28;20506;-71
2023/01/17 06:20:56;;;;;;;178.32;71.68;;;;;;;3.40;100.00;98397.84;5027470;28;20029;-70
2023/01/17 06:23:22;;;;;;;184.95;77.55;;;;;;;3.53;100.00;98400.88;5030930;28;20024;-71
2023/01/17 06:25:49;;;;;;;230.43;69.18;;;;;;;3.63;100.00;98415.25;5030784;28;20511;-71
2023/01/17 06:28:17;;;;;;;164.05;60.10;;;;;;;3.66;100.00;98430.41;5030349;28;20026;-70
2023/01/17 06:30:43;;;;;;;189.23;67.40;;;;;;;3.67;100.00;98409.91;5029516;28;20022;-72
2023/01/17 06:33:09;;;;;;;156.52;62.45;;;;;;;3.57;100.00;98407.38;5031571;28;20047;-72
2023/01/17 06:35:43;;;;;;;193.43;83.00;;;;;;;3.83;100.00;98398.44;5029661;28;20068;-71
2023/01/17 06:38:08;;;;;;;184.98;67.53;;;;;;;3.65;100.00;98407.44;5028733;28;20025;-71
2023/01/17 06:40:34;;;;;;;191.10;75.68;;;;;;;3.51;100.00;98396.47;5028795;28;20025;-70
2023/01/17 06:43:01;;;;;;;202.57;78.85;;;;;;;3.46;100.00;98399.34;5020916;28;20101;-72
2023/01/17 06:45:28;;;;;;;186.40;70.03;;;;;;;3.51;100.00;98381.81;5028963;28;20083;-74
2023/01/17 06:47:54;;;;;;;178.63;61.65;;;;;;;3.54;100.00;98372.06;5028591;28;20036;-71
2023/01/17 06:50:19;;;;;;;169.20;59.47;;;;;;;3.75;100.00;98378.72;5030425;28;20396;-72
2023/01/17 06:52:56;;;;;;;200.68;72.95;;;;;;;3.69;100.00;98379.97;5028993;28;20018;-71
2023/01/17 06:55:22;;;;;;;171.85;64.32;;;;;;;3.63;100.00;98362.69;5045221;28;20474;-73
2023/01/17 06:57:49;;;;;;;169.80;65.78;;;;;;;3.84;100.00;98366.88;5030443;28;20365;-72
2023/01/17 07:00:15;;;;;;;174.05;63.08;;;;;;;3.60;100.00;98356.97;5028335;28;20049;-72
2023/01/17 07:02:40;;;;;;;153.48;60.10;;;;;;;3.58;100.00;98362.00;5030391;28;20025;-73
2023/01/17 07:05:07;;;;;;;154.88;56.88;;;;;;;3.42;100.00;98367.94;5031286;28;20048;-70
2023/01/17 07:07:33;;;;;;;161.52;58.78;;;;;;;3.58;100.00;98331.59;5030582;28;20084;-71
2023/01/17 07:09:59;;;;;;;152.20;57.17;;;;;;;3.99;100.00;98332.44;5023409;28;20033;-72
2023/01/17 07:12:24;;;;;;;192.70;81.78;;;;;;;4.24;100.00;98347.53;5030534;28;20026;-73
2023/01/17 07:14:50;;;;;;;147.80;52.63;;;;;;;4.10;100.00;98341.28;5028930;28;20543;-72
2023/01/17 07:17:16;;;;;;;142.38;53.83;;;;;;;4.02;100.00;98343.69;5023033;28;20026;-70
2023/01/17 07:19:41;;;;;;;150.00;53.70;;;;;;;3.86;100.00;98350.78;5028429;28;20349;-71
2023/01/17 07:22:09;;;;;;;133.30;52.35;;;;;;;4.08;100.00;98358.22;5034655;28;20028;-72
2023/01/17 07:24:36;;;;;;;134.30;52.13;;;;;;;4.06;100.00;98361.28;5029437;28;20492;-70
2023/01/17 07:27:03;;;;;;;125.45;48.72;;;;;;;4.09;100.00;98379.22;5031621;28;20464;-74
2023/01/17 07:29:28;;;;;;;166.88;59.00;;;;;;;3.73;100.00;98391.22;5036996;28;20052;-73
2023/01/17 07:31:54;;;;;;;146.48;54.47;;;;;;;3.76;100.00;98393.34;5041193;28;20057;-72
2023/01/17 07:34:20;;;;;;;150.00;54.45;;;;;;;4.07;100.00;98379.53;5031549;28;20128;-70
2023/01/17 07:36:47;;;;;;;135.90;53.63;;;;;;;4.28;100.00;98373.44;5029125;28;20486;-72
2023/01/17 07:39:12;;;;;;;109.97;46.20;;;;;;;4.38;100.00;98354.91;5031671;28;20021;-73
2023/01/17 07:41:40;;;;;;;124.97;47.13;;;;;;;4.60;100.00;98345.66;5032662;28;20098;-70
2023/01/17 07:44:12;;;;;;;132.73;67.43;;;;;;;4.78;100.00;98357.59;5028338;28;20124;-70
2023/01/17 07:46:38;;;;;;;114.65;55.58;;;;;;;5.04;100.00;98354.03;5033196;28;20021;-70
2023/01/17 07:49:03;;;;;;;88.95;38.72;;;;;;;5.04;100.00;98376.19;5018860;28;20037;-73
2023/01/17 07:51:29;;;;;;;97.88;42.38;;;;;;;5.16;100.00;98386.66;5029675;28;20484;-70
2023/01/17 07:53:54;;;;;;;88.93;40.50;;;;;;;5.07;100.00;98375.56;5031834;28;20034;-71
2023/01/17 07:56:20;;;;;;;96.93;43.08;;;;;;;4.89;100.00;98380.28;5031733;28;20393;-70
2023/01/17 07:58:47;;;;;;;95.72;41.58;;;;;;;5.05;100.00;98369.50;5031108;28;20041;-69
2023/01/17 08:01:13;;;;;;;108.28;41.38;;;;;;;4.96;100.00;98372.28;5013487;28;20030;-70
2023/01/17 08:03:39;;;;;;;96.20;42.58;;;;;;;4.91;100.00;98380.78;5019337;28;20030;-70
2023/01/17 08:06:06;;;;;;;102.88;42.47;;;;;;;4.92;100.00;98399.81;5022641;28;20029;-68
2023/01/17 08:08:31;;;;;;;96.10;40.15;;;;;;;4.91;100.00;98422.34;5031036;28;20053;-70
2023/01/17 08:10:57;;;;;;;100.88;42.72;;;;;;;4.91;100.00;98406.50;5046126;28;20142;-72
2023/01/17 08:13:23;;;;;;;94.65;44.00;;;;;;;4.99;100.00;98420.72;5032499;28;20025;-72
2023/01/17 08:18:27;;;;;;;106.85;46.25;;;;;;;4.70;100.00;98427.63;5159676;22;20061;-88
2023/01/17 08:24:00;;;;;;;93.38;41.55;;;;;;;4.74;100.00;98428.66;5465839;22;20132;-85
2023/01/17 08:26:26;;;;;;;95.63;40.47;;;;;;;4.72;100.00;98422.63;5035541;28;20029;-87
2023/01/17 08:28:59;;;;;;;114.28;45.10;;;;;;;4.63;100.00;98406.78;5054794;28;20032;-86
2023/01/17 08:31:25;;;;;;;97.55;43.30;;;;;;;4.82;100.00;98418.72;5059740;28;20035;-87
2023/01/17 08:33:51;;;;;;;105.65;44.60;;;;;;;4.79;100.00;98417.41;5073450;28;20056;-84
2023/01/17 08:36:17;;;;;;;106.82;47.00;;;;;;;5.00;100.00;98422.34;5054182;28;20084;-85
2023/01/17 08:38:42;;;;;;;94.55;41.70;;;;;;;5.10;100.00;98416.50;5052460;28;20111;-85
2023/01/17 08:41:07;;;;;;;111.97;52.85;;;;;;;5.32;100.00;98404.44;5054431;28;20028;-84
2023/01/17 08:43:33;;;;;;;107.53;46.72;;;;;;;5.36;100.00;98410.16;5072845;28;20025;-84
2023/01/17 08:46:00;;;;;;;119.05;46.78;;;;;;;5.06;100.00;98408.00;5073417;28;20036;-86
2023/01/17 08:48:25;;;;;;;112.72;48.30;;;;;;;4.94;100.00;98393.13;5055339;28;20029;-85
2023/01/17 08:50:50;;;;;;;100.43;46.42;;;;;;;5.06;100.00;98402.47;5055458;28;20028;-84
2023/01/17 08:53:20;;;;;;;105.63;46.15;;;;;;;4.82;100.00;98411.22;5055109;28;20025;-84
2023/01/17 08:55:46;;;;;;;147.23;77.03;;;;;;;4.72;100.00;98383.84;5055489;28;20028;-86
2023/01/17 08:58:11;;;;;;;140.55;68.00;;;;;;;4.77;100.00;98406.66;5073323;28;20056;-83
2023/01/17 09:00:37;;;;;;;126.85;60.80;;;;;;;4.89;100.00;98403.25;5054923;28;20032;-85
2023/01/17 09:03:02;;;;;;;171.00;98.20;;;;;;;4.90;100.00;98385.47;5055478;28;20020;-85
2023/01/17 09:05:28;;;;;;;138.70;65.18;;;;;;;5.13;100.00;98388.13;5055076;28;20094;-85
2023/01/17 09:07:55;;;;;;;108.88;48.13;;;;;;;5.31;100.00;98397.25;5059593;28;20459;-84
2023/01/17 09:10:24;;;;;;;113.78;50.35;;;;;;;5.36;100.00;98390.72;5064518;28;20060;-86
2023/01/17 09:12:49;;;;;;;117.50;48.42;;;;;;;5.41;100.00;98403.63;5054704;28;20056;-86
2023/01/17 09:15:19;;;;;;;112.88;45.65;;;;;;;5.47;100.00;98377.34;5054879;28;20513;-84
2023/01/17 09:17:45;;;;;;;107.45;48.35;;;;;;;5.60;100.00;98398.53;5052394;28;20040;-84
2023/01/17 09:20:11;;;;;;;110.35;44.92;;;;;;;5.62;100.00;98401.00;5055007;28;20036;-85
2023/01/17 09:22:37;;;;;;;123.32;53.47;;;;;;;5.30;100.00;98401.19;5070251;28;20024;-86
2023/01/17 09:25:04;;;;;;;117.03;46.33;;;;;;;5.24;100.00;98409.97;5031296;28;20055;-86
2023/01/17 09:27:29;;;;;;;116.28;49.58;;;;;;;5.50;100.00;98390.56;5031787;28;20532;-84
2023/01/17 09:29:55;;;;;;;128.30;53.13;;;;;;;5.48;100.00;98382.56;5039218;28;20025;-85
2023/01/17 09:32:20;;;;;;;129.10;57.78;;;;;;;5.57;100.00;98406.72;5034866;28;20115;-84
2023/01/17 09:34:46;;;;;;;131.05;58.15;;;;;;;5.26;100.00;98389.13;5034880;28;20037;-84
2023/01/17 09:37:11;;;;;;;128.55;54.58;;;;;;;5.74;100.00;98414.22;5034627;28;20033;-84
2023/01/17 09:39:37;;;;;;;125.35;57.60;;;;;;;5.18;100.00;98399.03;5030907;28;20038;-84
2023/01/17 09:42:31;;;;;;;118.03;51.55;;;;;;;5.38;100.00;98393.19;5031446;28;20063;-85
2023/01/17 09:44:59;;;;;;;107.25;46.13;;;;;;;5.27;100.00;98368.56;5042436;28;20086;-84
2023/01/17 09:47:42;;;;;;;104.30;46.90;;;;;;;5.28;100.00;98370.19;5032077;28;20020;-84
2023/01/17 09:50:17;;;;;;;106.75;44.38;;;;;;;5.41;100.00;98368.38;5030592;28;20043;-86
2023/01/17 09:52:43;;;;;;;94.43;44.90;;;;;;;5.62;100.00;98370.47;5016239;28;20384;-85
2023/01/17 09:55:14;;;;;;;100.90;44.65;;;;;;;5.70;100.00;98350.22;5052822;28;20025;-86
2023/01/17 09:57:51;;;;;;;94.57;42.35;;;;;;;5.86;100.00;98366.34;5034725;28;20039;-85
2023/01/17 10:00:47;;;;;;;98.78;42.53;;;;;;;5.86;100.00;98333.88;5034580;28;20067;-84
2023/01/17 10:03:30;;;;;;;92.80;39.13;;;;;;;6.03;100.00;98351.63;5051943;28;20028;-84
2023/01/17 10:06:04;;;;;;;94.22;41.38;;;;;;;6.28;100.00;98361.00;5033857;28;20036;-84
2023/01/17 10:09:03;;;;;;;85.70;40.83;;;;;;;6.27;99.18;98372.44;5020604;28;20041;-84
2023/01/17 10:11:54;;;;;;;95.00;44.47;;;;;;;6.38;97.36;98359.81;5033292;28;20030;-85
2023/01/17 10:14:32;;;;;;;88.50;40.53;;;;;;;6.32;96.60;98356.41;5031848;28;20040;-84
2023/01/17 10:17:12;;;;;;;93.25;42.90;;;;;;;6.30;97.68;98352.34;5033788;28;20036;-84
2023/01/17 10:20:14;;;;;;;87.20;38.55;;;;;;;6.29;97.43;98350.72;5034827;28;20028;-84
2023/01/17 10:22:51;;;;;;;87.28;38.50;;;;;;;6.37;97.12;98346.25;5027012;28;20056;-84
2023/01/17 10:25:35;;;;;;;89.38;39.85;;;;;;;6.41;96.74;98341.69;5030230;28;20021;-85
2023/01/17 10:28:19;;;;;;;90.20;42.03;;;;;;;6.57;96.09;98345.50;5023518;28;20028;-84
2023/01/17 10:30:58;;;;;;;93.35;39.17;;;;;;;6.54;96.03;98356.47;5032523;28;20044;-86
2023/01/17 10:33:28;;;;;;;84.00;37.92;;;;;;;6.64;95.62;98338.63;5032522;28;20032;-85
2023/01/17 10:36:02;;;;;;;91.35;41.05;;;;;;;6.47;96.96;98329.22;5030417;28;20498;-83
2023/01/17 10:38:37;;;;;;;92.75;39.85;;;;;;;6.67;96.76;98343.50;5042861;28;20040;-85
2023/01/17 10:41:44;;;;;;;90.35;41.00;;;;;;;6.71;95.99;98366.66;5031189;28;20119;-85
2023/01/17 10:44:19;;;;;;;88.75;40.90;;;;;;;6.06;97.56;98345.41;5055981;28;20021;-86
2023/01/17 10:46:56;;;;;;;97.30;43.95;;;;;;;5.89;100.00;98355.41;5047618;28;20028;-85
2023/01/17 10:49:25;;;;;;;95.07;43.60;;;;;;;5.97;100.00;98369.56;5032929;28;20033;-85
2023/01/17 10:52:07;;;;;;;109.60;45.90;;;;;;;6.14;100.00;98364.00;5034604;28;20033;-84
2023/01/17 10:54:57;;;;;;;109.70;48.80;;;;;;;6.21;99.78;98371.81;5051113;28;20111;-84
2023/01/17 10:57:26;;;;;;;95.05;42.72;;;;;;;6.16;99.93;98311.72;5033395;28;20029;-83
2023/01/17 10:59:52;;;;;;;89.07;43.38;;;;;;;6.60;99.21;98352.34;5032951;28;20411;-84
2023/01/17 11:02:48;;;;;;;88.72;44.80;;;;;;;6.50;97.43;98334.09;5033910;28;20086;-85
2023/01/17 11:05:23;;;;;;;94.90;43.22;;;;;;;6.53;97.37;98344.56;5033060;28;20037;-84
2023/01/17 11:08:04;;;;;;;87.25;42.17;;;;;;;6.35;98.62;98331.91;5033392;28;20036;-84
2023/01/17 11:10:52;;;;;;;92.88;43.70;;;;;;;6.75;97.23;98345.38;5033129;28;20021;-84
2023/01/17 11:13:18;;;;;;;116.90;59.08;;;;;;;6.81;96.26;98332.09;5030887;28;20549;-84
2023/01/17 11:15:48;;;;;;;90.43;42.40;;;;;;;6.93;95.01;98312.72;5027294;28;20029;-86
2023/01/17 11:18:17;;;;;;;102.47;46.70;;;;;;;7.13;95.42;98336.13;5033187;28;20036;-87
2023/01/17 11:20:43;;;;;;;97.40;44.40;;;;;;;7.12;94.58;98292.78;5034275;28;20025;-86
2023/01/17 11:23:17;;;;;;;89.80;41.35;;;;;;;7.21;93.22;98294.66;5038849;28;20044;-87
2023/01/17 11:25:54;;;;;;;92.72;41.88;;;;;;;7.14;94.01;98272.97;5027226;28;20032;-86
2023/01/17 11:31:28;;;;;;;93.93;45.33;;;;;;;7.08;94.80;98274.34;5052752;28;20033;-86
2023/01/17 11:34:17;;;;;;;100.60;44.47;;;;;;;7.24;93.05;98277.28;5033964;28;20604;-86
2023/01/17 11:36:44;;;;;;;103.70;46.25;;;;;;;7.39;93.78;98276.66;5032653;28;20021;-87
2023/01/17 11:39:26;;;;;;;100.53;47.65;;;;;;;7.36;91.28;98273.75;5034154;28;20190;-87
2023/01/17 11:41:52;;;;;;;93.13;46.30;;;;;;;7.20;94.00;98284.69;5034053;28;20029;-87
2023/01/17 11:44:26;;;;;;;96.15;46.05;;;;;;;7.23;93.94;98286.78;5036318;28;20039;-85
2023/01/17 11:47:15;;;;;;;111.07;49.08;;;;;;;7.19;95.19;98274.72;5026610;28;20033;-88
2023/01/17 11:49:46;;;;;;;118.22;51.80;;;;;;;7.16;94.23;98253.97;5034506;28;20064;-87
2023/01/17 11:52:26;;;;;;;110.05;51.45;;;;;;;7.36;93.89;98282.91;5052187;28;20580;-89
2023/01/17 11:54:54;;;;;;;100.72;47.63;;;;;;;7.66;92.36;98284.72;5034659;28;20051;-87
2023/01/17 11:57:32;;;;;;;89.72;45.45;;;;;;;7.50;92.27;98273.44;5051721;28;20044;-85
2023/01/17 12:00:21;;;;;;;95.20;45.60;;;;;;;7.47;94.17;98286.06;5051827;28;20031;-86
2023/01/17 12:03:20;;;;;;;112.00;53.10;;;;;;;7.69;94.07;98284.03;5026310;28;20525;-86
2023/01/17 12:05:54;;;;;;;117.03;51.50;;;;;;;7.73;93.65;98283.00;5027228;28;20423;-85
2023/01/17 12:08:38;;;;;;;92.20;43.92;;;;;;;7.70;91.66;98275.31;5036153;28;20033;-85
2023/01/17 12:11:09;;;;;;;85.40;38.00;;;;;;;7.63;92.78;98283.44;5035259;28;20104;-86
2023/01/17 12:14:00;;;;;;;100.18;49.35;;;;;;;7.22;94.34;98276.81;5017541;28;20559;-85
2023/01/17 12:16:31;;;;;;;112.00;50.70;;;;;;;7.58;94.69;98278.09;5054523;28;20029;-85
2023/01/17 12:19:32;;;;;;;303.08;125.53;;;;;;;7.78;93.78;98256.91;5057153;28;20032;-85
2023/01/17 12:22:19;;;;;;;114.30;51.33;;;;;;;7.75;93.73;98245.66;5057318;28;20607;-86
2023/01/17 12:25:13;;;;;;;90.65;40.58;;;;;;;7.67;93.46;98244.63;5036604;28;20091;-85
2023/01/17 12:27:54;;;;;;;90.55;44.40;;;;;;;7.30;94.95;98240.59;5017307;28;20026;-85
2023/01/17 12:30:56;;;;;;;151.43;62.90;;;;;;;7.48;95.82;98240.38;5017027;28;20033;-85
2023/01/17 12:33:46;;;;;;;231.35;87.05;;;;;;;7.55;96.44;98232.31;5032802;28;20441;-85
2023/01/17 12:36:21;;;;;;;116.55;54.03;;;;;;;7.51;96.08;98225.00;5056364;28;20030;-84
2023/01/17 12:38:47;;;;;;;281.85;117.43;;;;;;;7.51;96.58;98205.50;5051055;28;20103;-85
2023/01/17 12:41:35;;;;;;;88.78;42.42;;;;;;;7.48;96.59;98220.91;5036522;28;20029;-85
2023/01/17 12:44:00;;;;;;;112.65;54.10;;;;;;;7.39;96.68;98195.97;5027855;28;20411;-85
2023/01/17 12:46:29;;;;;;;250.48;92.88;;;;;;;7.63;96.41;98211.09;5036432;28;20024;-85
2023/01/17 12:49:07;;;;;;;177.70;73.00;;;;;;;7.90;95.48;98213.53;5036219;28;20036;-85
2023/01/17 12:51:39;;;;;;;119.15;53.55;;;;;;;7.68;95.89;98193.34;5036642;28;20537;-85
2023/01/17 12:54:17;;;;;;;105.53;47.83;;;;;;;7.90;95.54;98202.38;5036162;28;20029;-85
2023/01/17 12:57:03;;;;;;;110.35;47.08;;;;;;;8.06;95.00;98199.72;5038321;28;20496;-85
2023/01/17 12:59:37;;;;;;;190.82;70.30;;;;;;;8.11;94.47;98199.50;5043246;28;20020;-85
2023/01/17 13:02:19;;;;;;;163.18;72.07;;;;;;;8.09;94.28;98219.34;5036487;28;20028;-84
2023/01/17 13:04:52;;;;;;;211.50;77.47;;;;;;;8.21;94.57;98223.28;5035867;28;20090;-84